sensor_id;sensor_type;location;lat;lon;timestamp;temperature;humidity
44305;DHT22;30019;50.576;8.568;2023-06-22T00:01:47;21.00;99.90
44305;DHT22;30019;50.576;8.568;2023-06-22T00:04:13;21.00;99.90
44305;DHT22;30019;50.576;8.568;2023-06-22T00:06:38;21.00;99.90
44305;DHT22;30019;50.576;8.568;2023-06-22T00:09:04;21.00;99.90
44305;DHT22;30019;50.576;8.568;2023-06-22T00:11:29;21.10;99.90
44305;DHT22;30019;50.576;8.568;2023-06-22T00:13:56;21.10;99.90
44305;DHT22;30019;50.576;8.568;2023-06-22T00:16:22;21.10;99.90
44305;DHT22;30019;50.576;8.568;2023-06-22T00:18:47;21.00;99.90
44305;DHT22;30019;50.576;8.568;2023-06-22T00:21:14;20.90;99.90
44305;DHT22;30019;50.576;8.568;2023-06-22T00:23:39;20.90;99.90
44305;DHT22;30019;50.576;8.568;2023-06-22T00:26:05;21.00;99.90
44305;DHT22;30019;50.576;8.568;2023-06-22T00:28:30;21.10;99.90
44305;DHT22;30019;50.576;8.568;2023-06-22T00:33:58;21.00;99.90
44305;DHT22;30019;50.576;8.568;2023-06-22T00:36:24;20.90;99.90
44305;DHT22;30019;50.576;8.568;2023-06-22T00:38:50;20.90;99.90
44305;DHT22;30019;50.576;8.568;2023-06-22T00:41:16;20.90;99.90
44305;DHT22;30019;50.576;8.568;2023-06-22T00:43:42;20.90;99.90
44305;DHT22;30019;50.576;8.568;2023-06-22T00:46:07;21.00;99.90
44305;DHT22;30019;50.576;8.568;2023-06-22T00:48:33;21.10;99.90
44305;DHT22;30019;50.576;8.568;2023-06-22T00:50:58;21.10;99.90
44305;DHT22;30019;50.576;8.568;2023-06-22T00:53:24;21.20;99.90
44305;DHT22;30019;50.576;8.568;2023-06-22T00:55:50;21.20;99.90
44305;DHT22;30019;50.576;8.568;2023-06-22T00:58:17;21.20;99.90
44305;DHT22;30019;50.576;8.568;2023-06-22T01:00:43;21.20;99.90
44305;DHT22;30019;50.576;8.568;2023-06-22T01:03:08;21.20;99.90
44305;DHT22;30019;50.576;8.568;2023-06-22T01:05:34;21.20;99.90
44305;DHT22;30019;50.576;8.568;2023-06-22T01:10:32;21.20;99.90
44305;DHT22;30019;50.576;8.568;2023-06-22T01:13:02;21.10;99.90
44305;DHT22;30019;50.576;8.568;2023-06-22T01:15:34;21.00;99.90
44305;DHT22;30019;50.576;8.568;2023-06-22T01:18:03;21.00;99.90
44305;DHT22;30019;50.576;8.568;2023-06-22T01:20:29;20.90;99.90
44305;DHT22;30019;50.576;8.568;2023-06-22T01:25:26;20.90;99.90
44305;DHT22;30019;50.576;8.568;2023-06-22T01:27:59;20.90;99.90
44305;DHT22;30019;50.576;8.568;2023-06-22T01:30:28;20.90;99.90
44305;DHT22;30019;50.576;8.568;2023-06-22T01:32:55;20.90;99.90
44305;DHT22;30019;50.576;8.568;2023-06-22T01:35:21;20.80;99.90
44305;DHT22;30019;50.576;8.568;2023-06-22T01:37:47;20.70;99.90
44305;DHT22;30019;50.576;8.568;2023-06-22T01:40:13;20.70;99.90
44305;DHT22;30019;50.576;8.568;2023-06-22T01:42:40;20.60;99.90
44305;DHT22;30019;50.576;8.568;2023-06-22T01:45:06;20.50;99.90
44305;DHT22;30019;50.576;8.568;2023-06-22T01:47:32;20.40;99.90
44305;DHT22;30019;50.576;8.568;2023-06-22T01:49:58;20.30;99.90
44305;DHT22;30019;50.576;8.568;2023-06-22T01:52:24;20.30;99.90
44305;DHT22;30019;50.576;8.568;2023-06-22T01:54:49;20.30;99.90
44305;DHT22;30019;50.576;8.568;2023-06-22T01:57:15;20.20;99.90
44305;DHT22;30019;50.576;8.568;2023-06-22T02:02:09;20.20;99.90
44305;DHT22;30019;50.576;8.568;2023-06-22T02:04:36;20.20;99.90
44305;DHT22;30019;50.576;8.568;2023-06-22T02:07:04;20.20;99.90
44305;DHT22;30019;50.576;8.568;2023-06-22T02:09:31;20.10;99.90
44305;DHT22;30019;50.576;8.568;2023-06-22T02:11:56;20.00;99.90
44305;DHT22;30019;50.576;8.568;2023-06-22T02:14:23;20.00;99.90
44305;DHT22;30019;50.576;8.568;2023-06-22T02:16:49;20.00;99.90
44305;DHT22;30019;50.576;8.568;2023-06-22T02:19:15;20.00;99.90
44305;DHT22;30019;50.576;8.568;2023-06-22T02:21:41;19.90;99.90
44305;DHT22;30019;50.576;8.568;2023-06-22T02:24:06;19.80;99.90
44305;DHT22;30019;50.576;8.568;2023-06-22T02:26:32;19.80;99.90
44305;DHT22;30019;50.576;8.568;2023-06-22T02:28:58;19.90;99.90
44305;DHT22;30019;50.576;8.568;2023-06-22T02:31:23;19.90;99.90
44305;DHT22;30019;50.576;8.568;2023-06-22T02:33:59;19.80;99.90
44305;DHT22;30019;50.576;8.568;2023-06-22T02:36:25;19.80;99.90
44305;DHT22;30019;50.576;8.568;2023-06-22T02:38:51;19.80;99.90
44305;DHT22;30019;50.576;8.568;2023-06-22T02:41:17;19.70;99.90
44305;DHT22;30019;50.576;8.568;2023-06-22T02:43:46;19.70;99.90
44305;DHT22;30019;50.576;8.568;2023-06-22T02:46:12;19.70;99.90
44305;DHT22;30019;50.576;8.568;2023-06-22T02:48:38;19.70;99.90
44305;DHT22;30019;50.576;8.568;2023-06-22T02:51:04;19.80;99.90
44305;DHT22;30019;50.576;8.568;2023-06-22T02:53:29;19.80;99.90
44305;DHT22;30019;50.576;8.568;2023-06-22T02:55:55;19.80;99.90
44305;DHT22;30019;50.576;8.568;2023-06-22T02:58:21;19.70;99.90
44305;DHT22;30019;50.576;8.568;2023-06-22T03:00:46;19.70;99.90
44305;DHT22;30019;50.576;8.568;2023-06-22T03:03:12;19.70;99.90
44305;DHT22;30019;50.576;8.568;2023-06-22T03:05:37;19.70;99.90
44305;DHT22;30019;50.576;8.568;2023-06-22T03:08:03;19.60;99.90
44305;DHT22;30019;50.576;8.568;2023-06-22T03:10:28;19.60;99.90
44305;DHT22;30019;50.576;8.568;2023-06-22T03:12:54;19.60;99.90
44305;DHT22;30019;50.576;8.568;2023-06-22T03:15:20;19.60;99.90
44305;DHT22;30019;50.576;8.568;2023-06-22T03:17:45;19.60;99.90
44305;DHT22;30019;50.576;8.568;2023-06-22T03:20:11;19.60;99.90
44305;DHT22;30019;50.576;8.568;2023-06-22T03:22:40;19.50;99.90
44305;DHT22;30019;50.576;8.568;2023-06-22T03:25:06;19.50;99.90
44305;DHT22;30019;50.576;8.568;2023-06-22T03:27:38;19.50;99.90
44305;DHT22;30019;50.576;8.568;2023-06-22T03:30:04;19.50;99.90
44305;DHT22;30019;50.576;8.568;2023-06-22T03:32:30;19.50;99.90
44305;DHT22;30019;50.576;8.568;2023-06-22T03:34:55;19.40;99.90
44305;DHT22;30019;50.576;8.568;2023-06-22T03:37:24;19.40;99.90
44305;DHT22;30019;50.576;8.568;2023-06-22T03:39:50;19.40;99.90
44305;DHT22;30019;50.576;8.568;2023-06-22T03:42:15;19.30;99.90
44305;DHT22;30019;50.576;8.568;2023-06-22T03:44:40;19.40;99.90
44305;DHT22;30019;50.576;8.568;2023-06-22T03:47:06;19.40;99.90
44305;DHT22;30019;50.576;8.568;2023-06-22T03:49:33;19.40;99.90
44305;DHT22;30019;50.576;8.568;2023-06-22T03:51:58;19.40;99.90
44305;DHT22;30019;50.576;8.568;2023-06-22T03:54:24;19.50;99.90
44305;DHT22;30019;50.576;8.568;2023-06-22T03:56:49;19.50;99.90
44305;DHT22;30019;50.576;8.568;2023-06-22T03:59:15;19.50;99.90
44305;DHT22;30019;50.576;8.568;2023-06-22T04:01:40;19.50;99.90
44305;DHT22;30019;50.576;8.568;2023-06-22T04:04:06;19.50;99.90
44305;DHT22;30019;50.576;8.568;2023-06-22T04:06:31;19.30;99.90
44305;DHT22;30019;50.576;8.568;2023-06-22T04:08:57;19.30;99.90
44305;DHT22;30019;50.576;8.568;2023-06-22T04:11:22;19.20;99.90
44305;DHT22;30019;50.576;8.568;2023-06-22T04:13:47;19.20;99.90
44305;DHT22;30019;50.576;8.568;2023-06-22T04:16:14;19.30;99.90
44305;DHT22;30019;50.576;8.568;2023-06-22T04:18:39;19.40;99.90
44305;DHT22;30019;50.576;8.568;2023-06-22T04:21:05;19.50;99.90
44305;DHT22;30019;50.576;8.568;2023-06-22T04:23:30;19.60;99.90
44305;DHT22;30019;50.576;8.568;2023-06-22T04:25:56;19.60;99.90
44305;DHT22;30019;50.576;8.568;2023-06-22T04:28:21;19.60;99.90
44305;DHT22;30019;50.576;8.568;2023-06-22T04:30:47;19.50;99.90
44305;DHT22;30019;50.576;8.568;2023-06-22T04:33:13;19.60;99.90
44305;DHT22;30019;50.576;8.568;2023-06-22T04:35:39;19.70;99.90
44305;DHT22;30019;50.576;8.568;2023-06-22T04:38:06;19.80;99.90
44305;DHT22;30019;50.576;8.568;2023-06-22T04:40:32;19.90;99.90
44305;DHT22;30019;50.576;8.568;2023-06-22T04:42:57;19.90;99.90
44305;DHT22;30019;50.576;8.568;2023-06-22T04:45:23;19.80;99.90
44305;DHT22;30019;50.576;8.568;2023-06-22T04:47:48;19.80;99.90
44305;DHT22;30019;50.576;8.568;2023-06-22T04:50:14;19.80;99.90
44305;DHT22;30019;50.576;8.568;2023-06-22T04:52:40;20.00;99.90
44305;DHT22;30019;50.576;8.568;2023-06-22T04:55:05;20.10;99.90
44305;DHT22;30019;50.576;8.568;2023-06-22T04:57:31;20.20;99.90
44305;DHT22;30019;50.576;8.568;2023-06-22T04:59:59;20.20;99.90
44305;DHT22;30019;50.576;8.568;2023-06-22T05:02:37;20.30;99.90
44305;DHT22;30019;50.576;8.568;2023-06-22T05:05:02;20.40;99.90
44305;DHT22;30019;50.576;8.568;2023-06-22T05:07:34;20.40;99.90
44305;DHT22;30019;50.576;8.568;2023-06-22T05:10:01;20.50;99.90
44305;DHT22;30019;50.576;8.568;2023-06-22T05:12:27;20.60;99.90
44305;DHT22;30019;50.576;8.568;2023-06-22T05:14:52;20.60;99.90
44305;DHT22;30019;50.576;8.568;2023-06-22T05:17:18;20.60;99.90
44305;DHT22;30019;50.576;8.568;2023-06-22T05:19:44;20.60;99.90
44305;DHT22;30019;50.576;8.568;2023-06-22T05:22:16;20.70;99.90
44305;DHT22;30019;50.576;8.568;2023-06-22T05:24:42;20.70;99.90
44305;DHT22;30019;50.576;8.568;2023-06-22T05:27:08;20.80;99.90
44305;DHT22;30019;50.576;8.568;2023-06-22T05:29:33;21.00;99.90
44305;DHT22;30019;50.576;8.568;2023-06-22T05:31:59;21.10;99.90
44305;DHT22;30019;50.576;8.568;2023-06-22T05:34:25;21.20;99.90
44305;DHT22;30019;50.576;8.568;2023-06-22T05:36:51;21.40;99.90
44305;DHT22;30019;50.576;8.568;2023-06-22T05:39:16;21.50;99.90
44305;DHT22;30019;50.576;8.568;2023-06-22T05:41:42;21.60;99.90
44305;DHT22;30019;50.576;8.568;2023-06-22T05:44:11;21.80;99.90
44305;DHT22;30019;50.576;8.568;2023-06-22T05:46:36;21.90;99.90
44305;DHT22;30019;50.576;8.568;2023-06-22T05:49:02;21.90;99.90
44305;DHT22;30019;50.576;8.568;2023-06-22T05:51:27;21.90;99.90
44305;DHT22;30019;50.576;8.568;2023-06-22T05:53:53;21.80;99.90
44305;DHT22;30019;50.576;8.568;2023-06-22T05:56:18;21.80;99.90
44305;DHT22;30019;50.576;8.568;2023-06-22T05:58:45;21.90;99.90
44305;DHT22;30019;50.576;8.568;2023-06-22T06:01:10;22.00;99.90
44305;DHT22;30019;50.576;8.568;2023-06-22T06:03:36;22.10;99.90
44305;DHT22;30019;50.576;8.568;2023-06-22T06:06:06;21.90;99.90
44305;DHT22;30019;50.576;8.568;2023-06-22T06:08:32;22.00;99.90
44305;DHT22;30019;50.576;8.568;2023-06-22T06:10:57;22.00;99.90
44305;DHT22;30019;50.576;8.568;2023-06-22T06:13:23;22.10;99.90
44305;DHT22;30019;50.576;8.568;2023-06-22T06:15:48;22.10;99.90
44305;DHT22;30019;50.576;8.568;2023-06-22T06:18:16;22.20;99.90
44305;DHT22;30019;50.576;8.568;2023-06-22T06:20:42;22.50;99.90
44305;DHT22;30019;50.576;8.568;2023-06-22T06:23:07;22.60;99.90
44305;DHT22;30019;50.576;8.568;2023-06-22T06:25:33;22.50;99.90
44305;DHT22;30019;50.576;8.568;2023-06-22T06:27:58;22.50;99.90
44305;DHT22;30019;50.576;8.568;2023-06-22T06:30:24;22.30;99.90
44305;DHT22;30019;50.576;8.568;2023-06-22T06:32:50;22.20;99.90
44305;DHT22;30019;50.576;8.568;2023-06-22T06:35:16;22.20;99.90
44305;DHT22;30019;50.576;8.568;2023-06-22T06:37:43;22.30;99.90
44305;DHT22;30019;50.576;8.568;2023-06-22T06:40:09;22.20;99.90
44305;DHT22;30019;50.576;8.568;2023-06-22T06:42:39;22.40;99.90
44305;DHT22;30019;50.576;8.568;2023-06-22T06:45:14;22.60;99.90
44305;DHT22;30019;50.576;8.568;2023-06-22T06:47:40;22.70;99.90
44305;DHT22;30019;50.576;8.568;2023-06-22T06:50:06;22.70;99.90
44305;DHT22;30019;50.576;8.568;2023-06-22T06:52:31;22.60;99.90
44305;DHT22;30019;50.576;8.568;2023-06-22T06:54:57;22.70;99.90
44305;DHT22;30019;50.576;8.568;2023-06-22T06:57:23;22.90;99.90
44305;DHT22;30019;50.576;8.568;2023-06-22T06:59:48;23.00;99.90
44305;DHT22;30019;50.576;8.568;2023-06-22T07:02:14;23.00;99.90
44305;DHT22;30019;50.576;8.568;2023-06-22T07:04:40;23.10;99.90
44305;DHT22;30019;50.576;8.568;2023-06-22T07:07:05;23.30;99.90
44305;DHT22;30019;50.576;8.568;2023-06-22T07:09:31;23.30;99.90
44305;DHT22;30019;50.576;8.568;2023-06-22T07:11:56;23.40;99.90
44305;DHT22;30019;50.576;8.568;2023-06-22T07:14:22;23.50;99.90
44305;DHT22;30019;50.576;8.568;2023-06-22T07:16:47;23.70;99.90
44305;DHT22;30019;50.576;8.568;2023-06-22T07:19:13;23.90;99.90
44305;DHT22;30019;50.576;8.568;2023-06-22T07:21:38;24.00;99.90
44305;DHT22;30019;50.576;8.568;2023-06-22T07:24:05;24.00;99.90
44305;DHT22;30019;50.576;8.568;2023-06-22T07:26:31;24.10;99.90
44305;DHT22;30019;50.576;8.568;2023-06-22T07:28:56;24.10;99.90
44305;DHT22;30019;50.576;8.568;2023-06-22T07:31:23;24.30;99.90
44305;DHT22;30019;50.576;8.568;2023-06-22T07:33:49;24.50;99.90
44305;DHT22;30019;50.576;8.568;2023-06-22T07:36:14;24.50;99.90
44305;DHT22;30019;50.576;8.568;2023-06-22T07:38:40;24.80;99.90
44305;DHT22;30019;50.576;8.568;2023-06-22T07:41:05;25.10;99.90
44305;DHT22;30019;50.576;8.568;2023-06-22T07:43:31;25.20;99.90
44305;DHT22;30019;50.576;8.568;2023-06-22T07:45:58;25.10;99.90
44305;DHT22;30019;50.576;8.568;2023-06-22T07:48:23;24.90;99.90
44305;DHT22;30019;50.576;8.568;2023-06-22T07:50:49;24.90;99.90
44305;DHT22;30019;50.576;8.568;2023-06-22T07:53:14;25.20;99.90
44305;DHT22;30019;50.576;8.568;2023-06-22T07:55:40;25.60;99.90
44305;DHT22;30019;50.576;8.568;2023-06-22T07:58:05;25.80;99.90
44305;DHT22;30019;50.576;8.568;2023-06-22T08:00:31;25.80;99.90
44305;DHT22;30019;50.576;8.568;2023-06-22T08:02:58;26.00;99.90
44305;DHT22;30019;50.576;8.568;2023-06-22T08:05:24;26.10;99.90
44305;DHT22;30019;50.576;8.568;2023-06-22T08:07:49;26.10;99.90
44305;DHT22;30019;50.576;8.568;2023-06-22T08:10:15;26.00;99.90
44305;DHT22;30019;50.576;8.568;2023-06-22T08:12:40;25.80;99.90
44305;DHT22;30019;50.576;8.568;2023-06-22T08:15:06;25.60;99.90
44305;DHT22;30019;50.576;8.568;2023-06-22T08:17:33;25.30;99.90
44305;DHT22;30019;50.576;8.568;2023-06-22T08:19:58;25.50;99.90
44305;DHT22;30019;50.576;8.568;2023-06-22T08:22:23;25.80;99.90
44305;DHT22;30019;50.576;8.568;2023-06-22T08:24:49;26.30;99.90
44305;DHT22;30019;50.576;8.568;2023-06-22T08:27:15;26.20;99.90
44305;DHT22;30019;50.576;8.568;2023-06-22T08:29:42;26.40;99.90
44305;DHT22;30019;50.576;8.568;2023-06-22T08:32:08;26.50;99.90
44305;DHT22;30019;50.576;8.568;2023-06-22T08:34:34;27.00;99.90
44305;DHT22;30019;50.576;8.568;2023-06-22T08:36:59;27.10;99.90
44305;DHT22;30019;50.576;8.568;2023-06-22T08:39:25;27.10;99.90
44305;DHT22;30019;50.576;8.568;2023-06-22T08:41:51;27.60;99.90
44305;DHT22;30019;50.576;8.568;2023-06-22T08:44:18;27.50;99.90
44305;DHT22;30019;50.576;8.568;2023-06-22T08:46:43;27.60;99.90
44305;DHT22;30019;50.576;8.568;2023-06-22T08:49:09;27.80;99.90
44305;DHT22;30019;50.576;8.568;2023-06-22T08:51:35;27.60;99.90
44305;DHT22;30019;50.576;8.568;2023-06-22T08:54:00;27.80;99.90
44305;DHT22;30019;50.576;8.568;2023-06-22T08:56:26;28.20;99.90
44305;DHT22;30019;50.576;8.568;2023-06-22T08:58:51;28.10;99.90
44305;DHT22;30019;50.576;8.568;2023-06-22T09:01:17;28.10;99.90
44305;DHT22;30019;50.576;8.568;2023-06-22T09:03:42;28.40;99.90
44305;DHT22;30019;50.576;8.568;2023-06-22T09:06:07;28.60;99.90
44305;DHT22;30019;50.576;8.568;2023-06-22T09:08:37;28.70;99.90
44305;DHT22;30019;50.576;8.568;2023-06-22T09:11:02;29.10;99.90
44305;DHT22;30019;50.576;8.568;2023-06-22T09:18:40;28.30;99.90
44305;DHT22;30019;50.576;8.568;2023-06-22T09:21:05;28.50;99.90
44305;DHT22;30019;50.576;8.568;2023-06-22T09:23:31;28.70;99.90
44305;DHT22;30019;50.576;8.568;2023-06-22T09:25:56;29.00;99.90
44305;DHT22;30019;50.576;8.568;2023-06-22T09:28:22;29.30;99.10
44305;DHT22;30019;50.576;8.568;2023-06-22T09:30:47;29.20;99.90
44305;DHT22;30019;50.576;8.568;2023-06-22T09:33:13;29.20;98.80
44305;DHT22;30019;50.576;8.568;2023-06-22T09:35:38;29.50;99.40
44305;DHT22;30019;50.576;8.568;2023-06-22T09:38:04;29.40;99.10
44305;DHT22;30019;50.576;8.568;2023-06-22T09:40:29;29.50;99.90
44305;DHT22;30019;50.576;8.568;2023-06-22T09:42:55;29.40;99.90
44305;DHT22;30019;50.576;8.568;2023-06-22T09:45:20;29.50;99.00
44305;DHT22;30019;50.576;8.568;2023-06-22T09:47:46;29.50;98.70
44305;DHT22;30019;50.576;8.568;2023-06-22T09:50:11;29.80;99.70
44305;DHT22;30019;50.576;8.568;2023-06-22T09:52:37;29.90;97.70
44305;DHT22;30019;50.576;8.568;2023-06-22T09:55:02;30.20;97.50
44305;DHT22;30019;50.576;8.568;2023-06-22T09:57:29;29.70;97.90
44305;DHT22;30019;50.576;8.568;2023-06-22T09:59:54;29.30;98.30
44305;DHT22;30019;50.576;8.568;2023-06-22T10:02:20;29.30;98.20
44305;DHT22;30019;50.576;8.568;2023-06-22T10:04:45;29.50;98.80
44305;DHT22;30019;50.576;8.568;2023-06-22T10:07:12;30.00;98.70
44305;DHT22;30019;50.576;8.568;2023-06-22T10:09:37;30.10;97.70
44305;DHT22;30019;50.576;8.568;2023-06-22T10:12:02;30.50;97.20
44305;DHT22;30019;50.576;8.568;2023-06-22T10:14:28;30.40;96.70
44305;DHT22;30019;50.576;8.568;2023-06-22T10:16:54;30.40;96.40
44305;DHT22;30019;50.576;8.568;2023-06-22T10:19:20;30.10;97.00
44305;DHT22;30019;50.576;8.568;2023-06-22T10:21:45;29.80;97.10
44305;DHT22;30019;50.576;8.568;2023-06-22T10:24:11;29.60;98.40
44305;DHT22;30019;50.576;8.568;2023-06-22T10:26:36;29.50;97.10
44305;DHT22;30019;50.576;8.568;2023-06-22T10:29:02;29.40;98.40
44305;DHT22;30019;50.576;8.568;2023-06-22T10:31:28;29.50;97.90
44305;DHT22;30019;50.576;8.568;2023-06-22T10:33:54;30.00;96.10
44305;DHT22;30019;50.576;8.568;2023-06-22T10:36:19;30.60;96.00
44305;DHT22;30019;50.576;8.568;2023-06-22T10:38:45;30.80;94.20
44305;DHT22;30019;50.576;8.568;2023-06-22T10:41:12;30.60;94.70
44305;DHT22;30019;50.576;8.568;2023-06-22T10:43:37;30.70;95.10
44305;DHT22;30019;50.576;8.568;2023-06-22T10:46:03;31.00;94.10
44305;DHT22;30019;50.576;8.568;2023-06-22T10:48:28;31.30;93.80
44305;DHT22;30019;50.576;8.568;2023-06-22T10:50:54;31.30;93.20
44305;DHT22;30019;50.576;8.568;2023-06-22T10:53:19;31.40;93.40
44305;DHT22;30019;50.576;8.568;2023-06-22T10:55:45;31.60;93.40
44305;DHT22;30019;50.576;8.568;2023-06-22T10:58:10;31.60;93.40
44305;DHT22;30019;50.576;8.568;2023-06-22T11:00:36;31.90;92.10
44305;DHT22;30019;50.576;8.568;2023-06-22T11:03:02;31.90;92.20
44305;DHT22;30019;50.576;8.568;2023-06-22T11:05:27;31.80;92.50
44305;DHT22;30019;50.576;8.568;2023-06-22T11:07:53;31.80;92.40
44305;DHT22;30019;50.576;8.568;2023-06-22T11:10:18;31.80;92.40
44305;DHT22;30019;50.576;8.568;2023-06-22T11:12:44;31.80;91.20
44305;DHT22;30019;50.576;8.568;2023-06-22T11:15:09;32.00;90.20
44305;DHT22;30019;50.576;8.568;2023-06-22T11:17:35;32.00;90.60
44305;DHT22;30019;50.576;8.568;2023-06-22T11:20:00;32.20;90.90
44305;DHT22;30019;50.576;8.568;2023-06-22T11:22:26;32.60;86.50
44305;DHT22;30019;50.576;8.568;2023-06-22T11:24:51;33.40;88.70
44305;DHT22;30019;50.576;8.568;2023-06-22T11:27:17;33.60;82.80
44305;DHT22;30019;50.576;8.568;2023-06-22T11:29:43;33.80;79.30
44305;DHT22;30019;50.576;8.568;2023-06-22T11:32:08;33.90;81.50
44305;DHT22;30019;50.576;8.568;2023-06-22T11:34:34;34.40;77.60
44305;DHT22;30019;50.576;8.568;2023-06-22T11:36:59;34.90;76.00
44305;DHT22;30019;50.576;8.568;2023-06-22T11:39:25;35.60;75.90
44305;DHT22;30019;50.576;8.568;2023-06-22T11:41:50;35.70;73.80
44305;DHT22;30019;50.576;8.568;2023-06-22T11:44:16;35.60;72.10
44305;DHT22;30019;50.576;8.568;2023-06-22T11:46:41;35.60;73.80
44305;DHT22;30019;50.576;8.568;2023-06-22T11:49:07;35.10;73.90
44305;DHT22;30019;50.576;8.568;2023-06-22T11:51:33;34.40;75.10
44305;DHT22;30019;50.576;8.568;2023-06-22T11:53:58;33.50;76.30
44305;DHT22;30019;50.576;8.568;2023-06-22T11:56:24;34.00;76.70
44305;DHT22;30019;50.576;8.568;2023-06-22T11:58:49;34.30;73.20
44305;DHT22;30019;50.576;8.568;2023-06-22T12:01:15;34.80;74.50
44305;DHT22;30019;50.576;8.568;2023-06-22T12:03:40;35.20;73.90
44305;DHT22;30019;50.576;8.568;2023-06-22T12:06:06;35.40;71.50
44305;DHT22;30019;50.576;8.568;2023-06-22T12:08:31;35.00;71.90
44305;DHT22;30019;50.576;8.568;2023-06-22T12:10:57;34.80;70.50
44305;DHT22;30019;50.576;8.568;2023-06-22T12:13:22;34.60;71.90
44305;DHT22;30019;50.576;8.568;2023-06-22T12:15:48;34.50;69.80
44305;DHT22;30019;50.576;8.568;2023-06-22T12:18:13;34.10;70.00
44305;DHT22;30019;50.576;8.568;2023-06-22T12:20:40;34.20;70.20
44305;DHT22;30019;50.576;8.568;2023-06-22T12:23:05;34.20;74.00
44305;DHT22;30019;50.576;8.568;2023-06-22T12:25:31;34.00;71.00
44305;DHT22;30019;50.576;8.568;2023-06-22T12:27:56;34.00;70.80
44305;DHT22;30019;50.576;8.568;2023-06-22T12:30:22;34.00;72.40
44305;DHT22;30019;50.576;8.568;2023-06-22T12:32:47;34.00;70.10
44305;DHT22;30019;50.576;8.568;2023-06-22T12:35:13;34.20;74.00
44305;DHT22;30019;50.576;8.568;2023-06-22T12:37:40;34.50;70.90
44305;DHT22;30019;50.576;8.568;2023-06-22T12:40:06;34.50;68.70
44305;DHT22;30019;50.576;8.568;2023-06-22T12:42:31;34.60;69.50
44305;DHT22;30019;50.576;8.568;2023-06-22T12:44:57;34.70;69.20
44305;DHT22;30019;50.576;8.568;2023-06-22T12:47:22;34.40;68.00
44305;DHT22;30019;50.576;8.568;2023-06-22T12:49:48;34.10;69.70
44305;DHT22;30019;50.576;8.568;2023-06-22T12:52:13;34.00;72.50
44305;DHT22;30019;50.576;8.568;2023-06-22T12:54:39;34.20;72.00
44305;DHT22;30019;50.576;8.568;2023-06-22T12:57:04;34.50;68.60
44305;DHT22;30019;50.576;8.568;2023-06-22T12:59:30;34.80;71.30
44305;DHT22;30019;50.576;8.568;2023-06-22T13:01:55;35.00;67.60
44305;DHT22;30019;50.576;8.568;2023-06-22T13:04:21;35.20;69.40
44305;DHT22;30019;50.576;8.568;2023-06-22T13:06:46;35.20;68.30
44305;DHT22;30019;50.576;8.568;2023-06-22T13:09:17;35.60;72.70
44305;DHT22;30019;50.576;8.568;2023-06-22T13:11:42;36.10;66.40
44305;DHT22;30019;50.576;8.568;2023-06-22T13:14:08;36.10;66.90
44305;DHT22;30019;50.576;8.568;2023-06-22T13:16:33;36.40;67.30
44305;DHT22;30019;50.576;8.568;2023-06-22T13:18:59;36.20;66.30
44305;DHT22;30019;50.576;8.568;2023-06-22T13:21:24;36.50;66.10
44305;DHT22;30019;50.576;8.568;2023-06-22T13:23:50;35.90;65.40
44305;DHT22;30019;50.576;8.568;2023-06-22T13:26:15;35.60;68.60
44305;DHT22;30019;50.576;8.568;2023-06-22T13:28:41;35.30;69.40
44305;DHT22;30019;50.576;8.568;2023-06-22T13:31:06;35.00;71.00
44305;DHT22;30019;50.576;8.568;2023-06-22T13:33:31;35.10;69.40
44305;DHT22;30019;50.576;8.568;2023-06-22T13:35:57;34.90;70.60
44305;DHT22;30019;50.576;8.568;2023-06-22T13:38:22;34.70;68.70
44305;DHT22;30019;50.576;8.568;2023-06-22T13:40:48;34.70;73.00
44305;DHT22;30019;50.576;8.568;2023-06-22T13:43:14;34.70;70.50
44305;DHT22;30019;50.576;8.568;2023-06-22T13:45:40;34.80;69.60
44305;DHT22;30019;50.576;8.568;2023-06-22T13:48:05;35.00;69.40
44305;DHT22;30019;50.576;8.568;2023-06-22T13:50:31;35.20;72.30
44305;DHT22;30019;50.576;8.568;2023-06-22T13:52:56;35.00;69.40
44305;DHT22;30019;50.576;8.568;2023-06-22T13:55:22;35.10;70.10
44305;DHT22;30019;50.576;8.568;2023-06-22T13:57:48;35.00;69.80
44305;DHT22;30019;50.576;8.568;2023-06-22T14:00:14;35.10;69.90
44305;DHT22;30019;50.576;8.568;2023-06-22T14:02:39;35.20;68.50
44305;DHT22;30019;50.576;8.568;2023-06-22T14:05:06;35.00;69.80
44305;DHT22;30019;50.576;8.568;2023-06-22T14:07:31;35.30;71.80
44305;DHT22;30019;50.576;8.568;2023-06-22T14:09:57;35.30;69.30
44305;DHT22;30019;50.576;8.568;2023-06-22T14:12:23;35.10;69.60
44305;DHT22;30019;50.576;8.568;2023-06-22T14:14:48;34.80;70.10
44305;DHT22;30019;50.576;8.568;2023-06-22T14:17:14;34.50;69.90
44305;DHT22;30019;50.576;8.568;2023-06-22T14:19:39;34.10;71.10
44305;DHT22;30019;50.576;8.568;2023-06-22T14:22:05;33.70;72.00
44305;DHT22;30019;50.576;8.568;2023-06-22T14:24:30;33.30;72.60
44305;DHT22;30019;50.576;8.568;2023-06-22T14:26:56;33.00;73.50
44305;DHT22;30019;50.576;8.568;2023-06-22T14:29:21;32.40;74.60
44305;DHT22;30019;50.576;8.568;2023-06-22T14:31:47;31.90;77.00
44305;DHT22;30019;50.576;8.568;2023-06-22T14:34:13;31.50;80.40
44305;DHT22;30019;50.576;8.568;2023-06-22T14:36:38;31.30;81.00
44305;DHT22;30019;50.576;8.568;2023-06-22T14:39:04;31.10;82.60
44305;DHT22;30019;50.576;8.568;2023-06-22T14:41:30;30.80;83.20
44305;DHT22;30019;50.576;8.568;2023-06-22T14:43:55;30.70;84.50
44305;DHT22;30019;50.576;8.568;2023-06-22T14:46:20;30.60;84.30
44305;DHT22;30019;50.576;8.568;2023-06-22T14:48:46;30.50;83.70
44305;DHT22;30019;50.576;8.568;2023-06-22T14:51:12;30.40;83.80
44305;DHT22;30019;50.576;8.568;2023-06-22T14:53:37;30.30;83.90
44305;DHT22;30019;50.576;8.568;2023-06-22T14:56:03;30.20;84.50
44305;DHT22;30019;50.576;8.568;2023-06-22T14:58:30;30.10;84.80
44305;DHT22;30019;50.576;8.568;2023-06-22T15:01:07;30.10;86.00
44305;DHT22;30019;50.576;8.568;2023-06-22T15:03:36;29.90;85.70
44305;DHT22;30019;50.576;8.568;2023-06-22T15:06:02;29.80;86.30
44305;DHT22;30019;50.576;8.568;2023-06-22T15:08:28;29.70;86.80
44305;DHT22;30019;50.576;8.568;2023-06-22T15:10:53;29.60;87.80
44305;DHT22;30019;50.576;8.568;2023-06-22T15:13:19;29.60;88.30
44305;DHT22;30019;50.576;8.568;2023-06-22T15:15:45;29.60;88.60
44305;DHT22;30019;50.576;8.568;2023-06-22T15:18:11;29.50;88.80
44305;DHT22;30019;50.576;8.568;2023-06-22T15:20:36;29.50;88.70
44305;DHT22;30019;50.576;8.568;2023-06-22T15:23:02;29.50;89.90
44305;DHT22;30019;50.576;8.568;2023-06-22T15:25:27;29.40;90.00
44305;DHT22;30019;50.576;8.568;2023-06-22T15:27:53;29.40;89.60
44305;DHT22;30019;50.576;8.568;2023-06-22T15:30:21;29.30;90.10
44305;DHT22;30019;50.576;8.568;2023-06-22T15:32:47;29.20;90.30
44305;DHT22;30019;50.576;8.568;2023-06-22T15:35:14;29.20;90.40
44305;DHT22;30019;50.576;8.568;2023-06-22T15:37:44;29.10;90.70